Airfield :
LOGIN :

Register | Disclaimer

   EN    FR    IT 

 










Legend :    VFR   Marginal VFR   IFR   Intensive IFR   Very Intensive IFR
Visi :
Ceiling :
>= 8 km
>= 3000ft
5 to 8 km
1000 to 3000 ft
1500m to 5 km
500 to 1000 ft
800 to 1500m
200 to 500 ft
< 800m
< 200 ft
Symbols :   Thunderstorms  Fog  Heavy snow  Heavy precipitations  Wind > 20 kt
SIGMETs :     Misc.  Thunderstorms  Icing  Turbulence  Mountain Waves  Volcanic Ashes






- Airport Elevation : 353 ft
- IATA code : ZAG


LDZA - Zagreb Pleso

CURRENT METAR :
  • 080800Z VRB02KT 3500 BR BKN004 OVC008 04/03 Q1012 NOSIG

EXPIRED METARs :
  • 080730Z 06003KT 020V110 3500 BR BKN003 OVC008 04/03 Q1012 NOSIG
  • 080700Z 04004KT 020V080 4000 BR BKN003 OVC008 04/03 Q1012 NOSIG
  • 080630Z 05004KT 020V100 4000 -RA BR BKN004 OVC008 04/03 Q1012 NOSIG
  • 080600Z 06004KT 020V110 5000 -RA BR OVC004 04/03 Q1012 TEMPO 3000
  • 080530Z 04003KT 020V090 5000 -RA BR SCT004 OVC010 04/03 Q1013 TEMPO 2000

TAF TAF LDZA
Valid from the 08 at 06:00 until the 09 at 06:00 UTC


080525Z 0806/0906 04004KT 3000 BR OVC007 TX04/0806Z TN02/0905Z
TEMPO 0806/0810 1000 DZ BR OVC002
PROB30
TEMPO 0806/0816 6000 NSW SCT007 OVC015
BECMG 0817/0819 0600 FG VV002
ATIS : +385 1 6-259-214



MET'MAP, your aeronautical weather chart ! - Copyright ORBIFLY December 2007 - Disclaimer

ORBIFLY MET'MAP TEAM :

Programming & Development : Alexandra Zaïnal
Original concept : Baudouin d'Aumeries
Technical & hardware support : Manuel Goepfert
Assistance : Marc-Olivier Méhu




SOURCES & CREDITS :

   NOAA